Detall de PIREP

Printer-friendly versionPDF version

[2013/01/09 09:01:00]
Flight IATA:CT1005
Pilot Number:011
Company ICAO:CAT
Aircraft Type:F28/A
PAX:85
Departing Airport: LMML
Destination Airport: LJMB
Alternate Airport:LOWW
Online: VATSIM
Route:LORED UM600 ERNAM UQ58 SOR UM725 SPL UL862 GISER UL868 MAXUR UL156 VALLU
Flight Level:F350
No Slew and time accel
No pause
Crash detect
Detect pilot in Cockpit between each 30 and 45 minutes
09:01 Zero fuel Weight: 58657 Lbs, Fuel Weight: 14583 Lbs
09:01 VATSIM:LMML 090845Z 32010KT 9999 SCT024 BKN040 15/10 Q1025 NOSIG
09:01 VATSIM:LJMB 090830Z VRB01KT 2500 BR FEW003 SCT055 BKN080 02/01 Q1022
09:04 Parking Brakes off
09:16 Take-off
09:16 Take off Weight: 72720 Lbs
09:16 Wind: 319º @ 010 Knots Heading: 315º
09:16 POS N35º 50´ 41´´ E014º 29´ 42´´
09:16 Flaps:3 at 145 Knots
09:16 Gear Up: 145 Knots
09:17 Flaps:2 at 152 Knots
09:17 Flaps:1 at 160 Knots
09:17 Flaps:0 at 168 Knots
09:31 Wind:296º@019 Knots Heading: 063º Ground Speed: 374 Knots Altitude 27706 ft
09:42 TOC
09:42 Fuel Weight: 11119 Lb
09:46 Wind:331º@008 Knots Heading: 340º Ground Speed: 435 Knots Altitude 35285 ft
10:01 Wind:348º@006 Knots Heading: 337º Ground Speed: 435 Knots Altitude 35255 ft
10:16 Wind:312º@012 Knots Heading: 025º Ground Speed: 434 Knots Altitude 35259 ft
10:31 Wind:253º@006 Knots Heading: 025º Ground Speed: 440 Knots Altitude 35291 ft
10:48 TOD
10:48 Fuel Weight: 6765 Lb
11:10 Flaps:1 at 217 Knots
11:11 Flaps:2 at 200 Knots
11:14 Flaps:3 at 188 Knots
11:14 Gear Down: 173 Knots
11:14 Flaps:4 at 163 Knots
11:15 Flaps:5 at 157 Knots
11:16 TouchDown:Rate -57 ft/min Speed: 118 Knots
11:16 Flaps:0 at 41 Knots
11:16 VATSIM:LJMB 091100Z VRB02KT 5000 BR FEW009 BKN080 04/02 Q1022
11:16 Land
11:16 Wind:229º@003 Knots
11:16 Heading: 324º
11:16 Flight Duration: 02:00
11:16 Landing Weight: 64356 Lbs
11:16 POS N46º 28´ 42´´ E015º 41´ 15´´
11:17 Parking brakes on
11:17 Block to Block Duration: 02:13
11:17 Final Fuel: 5639 Lbls
11:17 Spent Fuel: 8944 Lbls
11:17 Flight Length: 200 NM
11:17 TOD Land Length: 00 NM

Exportar CSV

Powered by Drupal - Modified by Danger4k